sensor_id;sensor_type;location;lat;lon;timestamp;P1;durP1;ratioP1;P2;durP2;ratioP2
24261;SDS011;12385;51.412;5.540;2023-07-13T00:02:21;10.05;;;1.70;;
24261;SDS011;12385;51.412;5.540;2023-07-13T00:04:47;7.57;;;1.85;;
24261;SDS011;12385;51.412;5.540;2023-07-13T00:07:13;6.72;;;1.65;;
24261;SDS011;12385;51.412;5.540;2023-07-13T00:09:39;11.45;;;1.45;;
24261;SDS011;12385;51.412;5.540;2023-07-13T00:12:19;7.03;;;1.73;;
24261;SDS011;12385;51.412;5.540;2023-07-13T00:14:58;6.82;;;1.58;;
24261;SDS011;12385;51.412;5.540;2023-07-13T00:17:25;9.13;;;1.70;;
24261;SDS011;12385;51.412;5.540;2023-07-13T00:19:52;11.35;;;1.73;;
24261;SDS011;12385;51.412;5.540;2023-07-13T00:22:18;5.88;;;1.27;;
24261;SDS011;12385;51.412;5.540;2023-07-13T00:24:44;9.05;;;1.42;;
24261;SDS011;12385;51.412;5.540;2023-07-13T00:27:11;7.72;;;1.63;;
24261;SDS011;12385;51.412;5.540;2023-07-13T00:29:37;9.23;;;1.88;;
24261;SDS011;12385;51.412;5.540;2023-07-13T00:32:03;6.22;;;1.58;;
24261;SDS011;12385;51.412;5.540;2023-07-13T00:34:30;5.82;;;1.38;;
24261;SDS011;12385;51.412;5.540;2023-07-13T00:36:56;6.15;;;1.50;;
24261;SDS011;12385;51.412;5.540;2023-07-13T00:39:22;8.90;;;1.63;;
24261;SDS011;12385;51.412;5.540;2023-07-13T00:41:48;7.70;;;1.63;;
24261;SDS011;12385;51.412;5.540;2023-07-13T00:44:15;5.75;;;1.65;;
24261;SDS011;12385;51.412;5.540;2023-07-13T00:46:41;10.07;;;1.80;;
24261;SDS011;12385;51.412;5.540;2023-07-13T00:49:08;10.13;;;1.90;;
24261;SDS011;12385;51.412;5.540;2023-07-13T00:51:47;6.30;;;1.55;;
24261;SDS011;12385;51.412;5.540;2023-07-13T00:54:17;8.80;;;1.98;;
24261;SDS011;12385;51.412;5.540;2023-07-13T00:56:48;5.75;;;1.40;;
24261;SDS011;12385;51.412;5.540;2023-07-13T00:59:17;9.88;;;1.75;;
24261;SDS011;12385;51.412;5.540;2023-07-13T01:01:44;9.27;;;1.63;;
24261;SDS011;12385;51.412;5.540;2023-07-13T01:04:10;9.23;;;1.90;;
24261;SDS011;12385;51.412;5.540;2023-07-13T01:06:36;9.70;;;1.67;;
24261;SDS011;12385;51.412;5.540;2023-07-13T01:09:03;8.48;;;2.05;;
24261;SDS011;12385;51.412;5.540;2023-07-13T01:11:31;8.10;;;1.70;;
24261;SDS011;12385;51.412;5.540;2023-07-13T01:13:57;6.80;;;1.60;;
24261;SDS011;12385;51.412;5.540;2023-07-13T01:16:25;4.43;;;1.83;;
24261;SDS011;12385;51.412;5.540;2023-07-13T01:18:53;12.25;;;1.73;;
24261;SDS011;12385;51.412;5.540;2023-07-13T01:21:23;11.18;;;2.10;;
24261;SDS011;12385;51.412;5.540;2023-07-13T01:23:50;10.20;;;1.88;;
24261;SDS011;12385;51.412;5.540;2023-07-13T01:26:15;11.02;;;2.25;;
24261;SDS011;12385;51.412;5.540;2023-07-13T01:28:41;10.70;;;2.10;;
24261;SDS011;12385;51.412;5.540;2023-07-13T01:31:07;7.80;;;1.92;;
24261;SDS011;12385;51.412;5.540;2023-07-13T01:33:34;8.88;;;1.58;;
24261;SDS011;12385;51.412;5.540;2023-07-13T01:36:01;8.02;;;1.50;;
24261;SDS011;12385;51.412;5.540;2023-07-13T01:38:27;8.88;;;1.92;;
24261;SDS011;12385;51.412;5.540;2023-07-13T01:40:53;6.97;;;1.60;;
24261;SDS011;12385;51.412;5.540;2023-07-13T01:43:18;7.53;;;1.85;;
24261;SDS011;12385;51.412;5.540;2023-07-13T01:45:45;7.97;;;1.92;;
24261;SDS011;12385;51.412;5.540;2023-07-13T01:48:11;6.45;;;1.42;;
24261;SDS011;12385;51.412;5.540;2023-07-13T01:50:37;10.57;;;1.88;;
24261;SDS011;12385;51.412;5.540;2023-07-13T01:53:03;8.10;;;1.95;;
24261;SDS011;12385;51.412;5.540;2023-07-13T01:55:30;7.00;;;1.85;;
24261;SDS011;12385;51.412;5.540;2023-07-13T01:57:56;8.27;;;2.15;;
24261;SDS011;12385;51.412;5.540;2023-07-13T02:00:22;12.70;;;2.25;;
24261;SDS011;12385;51.412;5.540;2023-07-13T02:02:48;14.07;;;1.98;;
24261;SDS011;12385;51.412;5.540;2023-07-13T02:05:14;13.30;;;2.13;;
24261;SDS011;12385;51.412;5.540;2023-07-13T02:07:40;8.15;;;2.13;;
24261;SDS011;12385;51.412;5.540;2023-07-13T02:10:07;8.85;;;2.00;;
24261;SDS011;12385;51.412;5.540;2023-07-13T02:12:34;12.57;;;2.17;;
24261;SDS011;12385;51.412;5.540;2023-07-13T02:15:00;9.95;;;1.90;;
24261;SDS011;12385;51.412;5.540;2023-07-13T02:17:26;8.98;;;1.80;;
24261;SDS011;12385;51.412;5.540;2023-07-13T02:19:52;7.18;;;1.90;;
24261;SDS011;12385;51.412;5.540;2023-07-13T02:22:18;7.28;;;1.85;;
24261;SDS011;12385;51.412;5.540;2023-07-13T02:24:44;8.38;;;1.90;;
24261;SDS011;12385;51.412;5.540;2023-07-13T02:27:09;12.77;;;2.10;;
24261;SDS011;12385;51.412;5.540;2023-07-13T02:29:35;8.18;;;1.92;;
24261;SDS011;12385;51.412;5.540;2023-07-13T02:32:01;10.68;;;2.60;;
24261;SDS011;12385;51.412;5.540;2023-07-13T02:34:27;10.57;;;2.00;;
24261;SDS011;12385;51.412;5.540;2023-07-13T02:36:53;11.48;;;2.33;;
24261;SDS011;12385;51.412;5.540;2023-07-13T02:39:19;11.35;;;2.42;;
24261;SDS011;12385;51.412;5.540;2023-07-13T02:41:44;9.27;;;2.40;;
24261;SDS011;12385;51.412;5.540;2023-07-13T02:44:12;8.00;;;2.28;;
24261;SDS011;12385;51.412;5.540;2023-07-13T02:46:38;7.50;;;2.00;;
24261;SDS011;12385;51.412;5.540;2023-07-13T02:49:04;9.75;;;2.03;;
24261;SDS011;12385;51.412;5.540;2023-07-13T02:51:31;9.75;;;2.10;;
24261;SDS011;12385;51.412;5.540;2023-07-13T02:53:59;7.07;;;1.90;;
24261;SDS011;12385;51.412;5.540;2023-07-13T02:56:26;12.55;;;2.10;;
24261;SDS011;12385;51.412;5.540;2023-07-13T02:58:53;8.48;;;2.00;;
24261;SDS011;12385;51.412;5.540;2023-07-13T03:01:20;9.93;;;2.10;;
24261;SDS011;12385;51.412;5.540;2023-07-13T03:03:47;15.00;;;2.50;;
24261;SDS011;12385;51.412;5.540;2023-07-13T03:06:13;7.53;;;2.33;;
24261;SDS011;12385;51.412;5.540;2023-07-13T03:08:40;13.02;;;2.45;;
24261;SDS011;12385;51.412;5.540;2023-07-13T03:11:08;12.85;;;2.47;;
24261;SDS011;12385;51.412;5.540;2023-07-13T03:13:39;8.13;;;2.08;;
24261;SDS011;12385;51.412;5.540;2023-07-13T03:16:06;7.47;;;2.22;;
24261;SDS011;12385;51.412;5.540;2023-07-13T03:18:32;8.95;;;2.20;;
24261;SDS011;12385;51.412;5.540;2023-07-13T03:20:58;11.48;;;2.00;;
24261;SDS011;12385;51.412;5.540;2023-07-13T03:23:24;11.82;;;2.70;;
24261;SDS011;12385;51.412;5.540;2023-07-13T03:25:50;7.75;;;2.50;;
24261;SDS011;12385;51.412;5.540;2023-07-13T03:28:25;10.85;;;2.30;;
24261;SDS011;12385;51.412;5.540;2023-07-13T03:30:58;9.27;;;2.17;;
24261;SDS011;12385;51.412;5.540;2023-07-13T03:33:35;7.75;;;2.33;;
24261;SDS011;12385;51.412;5.540;2023-07-13T03:36:01;10.70;;;2.40;;
24261;SDS011;12385;51.412;5.540;2023-07-13T03:38:28;9.73;;;2.53;;
24261;SDS011;12385;51.412;5.540;2023-07-13T03:40:54;9.32;;;2.78;;
24261;SDS011;12385;51.412;5.540;2023-07-13T03:43:19;11.45;;;2.78;;
24261;SDS011;12385;51.412;5.540;2023-07-13T03:45:45;13.75;;;2.55;;
24261;SDS011;12385;51.412;5.540;2023-07-13T03:48:11;13.38;;;2.60;;
24261;SDS011;12385;51.412;5.540;2023-07-13T03:50:37;11.65;;;2.95;;
24261;SDS011;12385;51.412;5.540;2023-07-13T03:53:03;10.77;;;3.05;;
24261;SDS011;12385;51.412;5.540;2023-07-13T03:55:29;10.43;;;2.60;;
24261;SDS011;12385;51.412;5.540;2023-07-13T03:57:59;14.48;;;2.90;;
24261;SDS011;12385;51.412;5.540;2023-07-13T04:03:10;11.38;;;3.10;;
24261;SDS011;12385;51.412;5.540;2023-07-13T04:05:36;11.50;;;2.70;;
24261;SDS011;12385;51.412;5.540;2023-07-13T04:08:05;14.50;;;3.08;;
24261;SDS011;12385;51.412;5.540;2023-07-13T04:10:31;10.05;;;3.00;;
24261;SDS011;12385;51.412;5.540;2023-07-13T04:12:56;13.90;;;3.72;;
24261;SDS011;12385;51.412;5.540;2023-07-13T04:15:22;13.25;;;3.35;;
24261;SDS011;12385;51.412;5.540;2023-07-13T04:17:48;13.23;;;3.75;;
24261;SDS011;12385;51.412;5.540;2023-07-13T04:20:13;12.50;;;3.33;;
24261;SDS011;12385;51.412;5.540;2023-07-13T04:22:39;16.60;;;3.97;;
24261;SDS011;12385;51.412;5.540;2023-07-13T04:25:05;15.52;;;4.30;;
24261;SDS011;12385;51.412;5.540;2023-07-13T04:27:31;15.43;;;3.95;;
24261;SDS011;12385;51.412;5.540;2023-07-13T04:29:57;17.52;;;4.97;;
24261;SDS011;12385;51.412;5.540;2023-07-13T04:32:22;16.83;;;4.47;;
24261;SDS011;12385;51.412;5.540;2023-07-13T04:34:48;16.85;;;4.28;;
24261;SDS011;12385;51.412;5.540;2023-07-13T04:37:18;16.88;;;4.13;;
24261;SDS011;12385;51.412;5.540;2023-07-13T04:39:44;14.68;;;4.40;;
24261;SDS011;12385;51.412;5.540;2023-07-13T04:42:10;16.58;;;4.75;;
24261;SDS011;12385;51.412;5.540;2023-07-13T04:44:36;16.90;;;4.75;;
24261;SDS011;12385;51.412;5.540;2023-07-13T04:47:01;14.02;;;4.07;;
24261;SDS011;12385;51.412;5.540;2023-07-13T04:49:27;19.00;;;4.68;;
24261;SDS011;12385;51.412;5.540;2023-07-13T04:51:53;21.30;;;4.90;;
24261;SDS011;12385;51.412;5.540;2023-07-13T04:54:19;16.50;;;4.57;;
24261;SDS011;12385;51.412;5.540;2023-07-13T04:56:46;21.05;;;4.90;;
24261;SDS011;12385;51.412;5.540;2023-07-13T04:59:12;17.08;;;4.53;;
24261;SDS011;12385;51.412;5.540;2023-07-13T05:01:38;15.43;;;4.50;;
24261;SDS011;12385;51.412;5.540;2023-07-13T05:04:04;23.77;;;5.30;;
24261;SDS011;12385;51.412;5.540;2023-07-13T05:06:30;19.48;;;5.10;;
24261;SDS011;12385;51.412;5.540;2023-07-13T05:08:56;20.33;;;5.15;;
24261;SDS011;12385;51.412;5.540;2023-07-13T05:11:22;24.48;;;5.80;;
24261;SDS011;12385;51.412;5.540;2023-07-13T05:13:47;21.90;;;5.25;;
24261;SDS011;12385;51.412;5.540;2023-07-13T05:16:13;18.63;;;5.38;;
24261;SDS011;12385;51.412;5.540;2023-07-13T05:18:39;23.85;;;5.85;;
24261;SDS011;12385;51.412;5.540;2023-07-13T05:21:06;22.60;;;6.10;;
24261;SDS011;12385;51.412;5.540;2023-07-13T05:23:34;18.75;;;5.90;;
24261;SDS011;12385;51.412;5.540;2023-07-13T05:26:00;22.35;;;5.90;;
24261;SDS011;12385;51.412;5.540;2023-07-13T05:28:27;21.02;;;6.10;;
24261;SDS011;12385;51.412;5.540;2023-07-13T05:30:53;18.27;;;5.90;;
24261;SDS011;12385;51.412;5.540;2023-07-13T05:33:19;20.83;;;6.32;;
24261;SDS011;12385;51.412;5.540;2023-07-13T05:35:45;17.58;;;6.05;;
24261;SDS011;12385;51.412;5.540;2023-07-13T05:38:12;19.02;;;6.00;;
24261;SDS011;12385;51.412;5.540;2023-07-13T05:40:38;24.42;;;5.97;;
24261;SDS011;12385;51.412;5.540;2023-07-13T05:43:03;20.10;;;5.18;;
24261;SDS011;12385;51.412;5.540;2023-07-13T05:45:29;24.08;;;5.78;;
24261;SDS011;12385;51.412;5.540;2023-07-13T05:47:55;18.00;;;5.82;;
24261;SDS011;12385;51.412;5.540;2023-07-13T05:50:21;16.83;;;5.75;;
24261;SDS011;12385;51.412;5.540;2023-07-13T05:52:46;19.60;;;5.10;;
24261;SDS011;12385;51.412;5.540;2023-07-13T05:55:12;17.55;;;4.68;;
24261;SDS011;12385;51.412;5.540;2023-07-13T05:57:39;19.75;;;5.22;;
24261;SDS011;12385;51.412;5.540;2023-07-13T06:00:05;18.20;;;4.72;;
24261;SDS011;12385;51.412;5.540;2023-07-13T06:02:31;20.20;;;4.88;;
24261;SDS011;12385;51.412;5.540;2023-07-13T06:04:57;22.00;;;4.85;;
24261;SDS011;12385;51.412;5.540;2023-07-13T06:07:22;22.75;;;5.20;;
24261;SDS011;12385;51.412;5.540;2023-07-13T06:09:48;22.52;;;5.60;;
24261;SDS011;12385;51.412;5.540;2023-07-13T06:12:14;20.48;;;5.22;;
24261;SDS011;12385;51.412;5.540;2023-07-13T06:14:39;25.67;;;5.60;;
24261;SDS011;12385;51.412;5.540;2023-07-13T06:17:05;21.08;;;5.22;;
24261;SDS011;12385;51.412;5.540;2023-07-13T06:19:31;17.65;;;5.63;;
24261;SDS011;12385;51.412;5.540;2023-07-13T06:21:56;21.48;;;5.63;;
24261;SDS011;12385;51.412;5.540;2023-07-13T06:24:23;25.88;;;6.30;;
24261;SDS011;12385;51.412;5.540;2023-07-13T06:26:49;16.77;;;5.82;;
24261;SDS011;12385;51.412;5.540;2023-07-13T06:29:15;16.40;;;5.60;;
24261;SDS011;12385;51.412;5.540;2023-07-13T06:31:41;20.80;;;6.05;;
24261;SDS011;12385;51.412;5.540;2023-07-13T06:34:09;23.30;;;6.90;;
24261;SDS011;12385;51.412;5.540;2023-07-13T06:36:35;19.58;;;5.90;;
24261;SDS011;12385;51.412;5.540;2023-07-13T06:39:01;23.65;;;6.47;;
24261;SDS011;12385;51.412;5.540;2023-07-13T06:41:27;20.83;;;6.07;;
24261;SDS011;12385;51.412;5.540;2023-07-13T06:43:53;18.98;;;6.30;;
24261;SDS011;12385;51.412;5.540;2023-07-13T06:46:22;21.13;;;6.10;;
24261;SDS011;12385;51.412;5.540;2023-07-13T06:48:48;20.95;;;6.07;;
24261;SDS011;12385;51.412;5.540;2023-07-13T06:51:15;23.05;;;6.05;;
24261;SDS011;12385;51.412;5.540;2023-07-13T06:53:41;23.65;;;5.82;;
24261;SDS011;12385;51.412;5.540;2023-07-13T06:56:08;14.15;;;5.05;;
24261;SDS011;12385;51.412;5.540;2023-07-13T06:58:35;23.63;;;5.80;;
24261;SDS011;12385;51.412;5.540;2023-07-13T07:01:02;19.20;;;5.93;;
24261;SDS011;12385;51.412;5.540;2023-07-13T07:03:29;17.33;;;5.18;;
24261;SDS011;12385;51.412;5.540;2023-07-13T07:05:59;19.92;;;5.70;;
24261;SDS011;12385;51.412;5.540;2023-07-13T07:08:37;16.20;;;4.82;;
24261;SDS011;12385;51.412;5.540;2023-07-13T07:11:03;20.00;;;4.88;;
24261;SDS011;12385;51.412;5.540;2023-07-13T07:13:29;22.30;;;5.72;;
24261;SDS011;12385;51.412;5.540;2023-07-13T07:15:55;17.88;;;5.40;;
24261;SDS011;12385;51.412;5.540;2023-07-13T07:18:21;16.67;;;5.50;;
24261;SDS011;12385;51.412;5.540;2023-07-13T07:20:46;19.30;;;5.78;;
24261;SDS011;12385;51.412;5.540;2023-07-13T07:23:14;17.88;;;5.03;;
24261;SDS011;12385;51.412;5.540;2023-07-13T07:25:40;22.27;;;4.93;;
24261;SDS011;12385;51.412;5.540;2023-07-13T07:28:08;16.73;;;4.88;;
24261;SDS011;12385;51.412;5.540;2023-07-13T07:30:33;19.90;;;5.40;;
24261;SDS011;12385;51.412;5.540;2023-07-13T07:33:00;21.05;;;4.88;;
24261;SDS011;12385;51.412;5.540;2023-07-13T07:35:26;21.23;;;4.85;;
24261;SDS011;12385;51.412;5.540;2023-07-13T07:37:52;21.60;;;5.10;;
24261;SDS011;12385;51.412;5.540;2023-07-13T07:40:18;19.77;;;5.13;;
24261;SDS011;12385;51.412;5.540;2023-07-13T07:42:44;18.58;;;5.13;;
24261;SDS011;12385;51.412;5.540;2023-07-13T07:45:10;16.10;;;4.85;;
24261;SDS011;12385;51.412;5.540;2023-07-13T07:47:38;14.07;;;4.28;;
24261;SDS011;12385;51.412;5.540;2023-07-13T07:50:04;20.10;;;4.97;;
24261;SDS011;12385;51.412;5.540;2023-07-13T07:52:30;15.68;;;4.88;;
24261;SDS011;12385;51.412;5.540;2023-07-13T07:54:56;16.52;;;4.78;;
24261;SDS011;12385;51.412;5.540;2023-07-13T07:57:21;15.30;;;4.50;;
24261;SDS011;12385;51.412;5.540;2023-07-13T07:59:47;16.83;;;4.53;;
24261;SDS011;12385;51.412;5.540;2023-07-13T08:02:13;17.83;;;4.47;;
24261;SDS011;12385;51.412;5.540;2023-07-13T08:04:39;11.63;;;4.07;;
24261;SDS011;12385;51.412;5.540;2023-07-13T08:07:05;13.75;;;4.22;;
24261;SDS011;12385;51.412;5.540;2023-07-13T08:09:31;22.90;;;4.28;;
24261;SDS011;12385;51.412;5.540;2023-07-13T08:11:57;14.27;;;4.53;;
24261;SDS011;12385;51.412;5.540;2023-07-13T08:14:23;16.92;;;3.97;;
24261;SDS011;12385;51.412;5.540;2023-07-13T08:16:48;14.80;;;3.78;;
24261;SDS011;12385;51.412;5.540;2023-07-13T08:19:14;12.48;;;3.78;;
24261;SDS011;12385;51.412;5.540;2023-07-13T08:21:40;12.40;;;3.88;;
24261;SDS011;12385;51.412;5.540;2023-07-13T08:24:08;11.80;;;3.38;;
24261;SDS011;12385;51.412;5.540;2023-07-13T08:26:34;10.80;;;3.47;;
24261;SDS011;12385;51.412;5.540;2023-07-13T08:29:00;12.32;;;3.42;;
24261;SDS011;12385;51.412;5.540;2023-07-13T08:31:25;11.10;;;3.42;;
24261;SDS011;12385;51.412;5.540;2023-07-13T08:33:51;12.13;;;3.30;;
24261;SDS011;12385;51.412;5.540;2023-07-13T08:36:17;13.27;;;3.70;;
24261;SDS011;12385;51.412;5.540;2023-07-13T08:38:45;16.98;;;4.18;;
24261;SDS011;12385;51.412;5.540;2023-07-13T08:41:16;13.75;;;2.92;;
24261;SDS011;12385;51.412;5.540;2023-07-13T08:43:49;11.48;;;3.70;;
24261;SDS011;12385;51.412;5.540;2023-07-13T08:49:04;16.98;;;4.18;;
24261;SDS011;12385;51.412;5.540;2023-07-13T08:51:43;13.25;;;3.38;;
24261;SDS011;12385;51.412;5.540;2023-07-13T08:54:18;11.18;;;3.63;;
24261;SDS011;12385;51.412;5.540;2023-07-13T08:56:53;11.13;;;2.85;;
24261;SDS011;12385;51.412;5.540;2023-07-13T08:59:30;11.10;;;2.78;;
24261;SDS011;12385;51.412;5.540;2023-07-13T09:04:37;11.50;;;3.30;;
24261;SDS011;12385;51.412;5.540;2023-07-13T09:09:57;10.13;;;2.88;;
24261;SDS011;12385;51.412;5.540;2023-07-13T09:15:35;13.40;;;2.70;;
24261;SDS011;12385;51.412;5.540;2023-07-13T09:20:42;12.52;;;2.97;;
24261;SDS011;12385;51.412;5.540;2023-07-13T09:23:14;11.15;;;2.60;;
24261;SDS011;12385;51.412;5.540;2023-07-13T09:28:11;11.65;;;3.20;;
24261;SDS011;12385;51.412;5.540;2023-07-13T09:33:28;11.50;;;2.53;;
24261;SDS011;12385;51.412;5.540;2023-07-13T09:35:56;11.60;;;3.10;;
24261;SDS011;12385;51.412;5.540;2023-07-13T09:38:28;12.80;;;3.05;;
24261;SDS011;12385;51.412;5.540;2023-07-13T09:44:00;16.50;;;2.90;;
24261;SDS011;12385;51.412;5.540;2023-07-13T09:46:36;12.73;;;2.80;;
24261;SDS011;12385;51.412;5.540;2023-07-13T09:49:03;10.38;;;2.60;;
24261;SDS011;12385;51.412;5.540;2023-07-13T09:51:29;9.45;;;2.40;;
24261;SDS011;12385;51.412;5.540;2023-07-13T09:53:55;10.35;;;2.63;;
24261;SDS011;12385;51.412;5.540;2023-07-13T09:56:22;10.63;;;2.80;;
24261;SDS011;12385;51.412;5.540;2023-07-13T09:58:50;10.82;;;2.67;;
24261;SDS011;12385;51.412;5.540;2023-07-13T10:01:15;12.18;;;2.97;;
24261;SDS011;12385;51.412;5.540;2023-07-13T10:03:57;8.40;;;2.00;;
24261;SDS011;12385;51.412;5.540;2023-07-13T10:06:23;8.27;;;2.20;;
24261;SDS011;12385;51.412;5.540;2023-07-13T10:08:49;8.93;;;2.42;;
24261;SDS011;12385;51.412;5.540;2023-07-13T10:16:23;11.00;;;2.40;;
24261;SDS011;12385;51.412;5.540;2023-07-13T10:24:25;10.57;;;2.40;;
24261;SDS011;12385;51.412;5.540;2023-07-13T10:26:57;10.57;;;2.45;;
24261;SDS011;12385;51.412;5.540;2023-07-13T10:29:32;10.05;;;2.22;;
24261;SDS011;12385;51.412;5.540;2023-07-13T10:32:09;6.80;;;1.80;;
24261;SDS011;12385;51.412;5.540;2023-07-13T10:34:37;7.75;;;1.95;;
24261;SDS011;12385;51.412;5.540;2023-07-13T10:37:04;6.80;;;2.17;;
24261;SDS011;12385;51.412;5.540;2023-07-13T10:39:33;8.00;;;1.80;;
24261;SDS011;12385;51.412;5.540;2023-07-13T10:42:01;8.45;;;2.17;;
24261;SDS011;12385;51.412;5.540;2023-07-13T10:44:32;8.57;;;1.95;;
24261;SDS011;12385;51.412;5.540;2023-07-13T10:47:08;6.28;;;1.65;;
24261;SDS011;12385;51.412;5.540;2023-07-13T10:49:39;7.38;;;1.90;;
24261;SDS011;12385;51.412;5.540;2023-07-13T10:52:34;6.70;;;1.88;;
24261;SDS011;12385;51.412;5.540;2023-07-13T10:55:02;5.40;;;1.52;;
24261;SDS011;12385;51.412;5.540;2023-07-13T10:57:28;5.78;;;1.40;;
24261;SDS011;12385;51.412;5.540;2023-07-13T11:02:40;12.98;;;2.05;;
24261;SDS011;12385;51.412;5.540;2023-07-13T11:05:29;13.75;;;2.33;;
24261;SDS011;12385;51.412;5.540;2023-07-13T11:07:56;8.20;;;1.92;;
24261;SDS011;12385;51.412;5.540;2023-07-13T11:10:52;11.30;;;2.60;;
24261;SDS011;12385;51.412;5.540;2023-07-13T11:14:25;8.68;;;2.58;;
24261;SDS011;12385;51.412;5.540;2023-07-13T11:21:27;9.02;;;2.25;;
24261;SDS011;12385;51.412;5.540;2023-07-13T11:26:56;8.48;;;2.00;;
24261;SDS011;12385;51.412;5.540;2023-07-13T11:31:54;5.53;;;1.60;;
24261;SDS011;12385;51.412;5.540;2023-07-13T11:34:37;6.95;;;1.75;;
24261;SDS011;12385;51.412;5.540;2023-07-13T11:37:08;6.20;;;1.70;;
24261;SDS011;12385;51.412;5.540;2023-07-13T11:39:39;6.90;;;1.90;;
24261;SDS011;12385;51.412;5.540;2023-07-13T11:42:09;6.80;;;1.80;;
24261;SDS011;12385;51.412;5.540;2023-07-13T11:44:42;7.32;;;1.83;;
24261;SDS011;12385;51.412;5.540;2023-07-13T11:47:14;5.50;;;1.70;;
24261;SDS011;12385;51.412;5.540;2023-07-13T11:49:47;6.45;;;1.70;;
24261;SDS011;12385;51.412;5.540;2023-07-13T11:52:16;5.07;;;1.35;;
24261;SDS011;12385;51.412;5.540;2023-07-13T11:55:03;6.30;;;1.50;;
24261;SDS011;12385;51.412;5.540;2023-07-13T11:57:45;5.22;;;1.42;;
24261;SDS011;12385;51.412;5.540;2023-07-13T12:00:17;7.75;;;1.55;;
24261;SDS011;12385;51.412;5.540;2023-07-13T12:02:47;9.50;;;1.70;;
24261;SDS011;12385;51.412;5.540;2023-07-13T12:05:16;3.97;;;1.40;;
24261;SDS011;12385;51.412;5.540;2023-07-13T12:07:44;6.50;;;1.35;;
24261;SDS011;12385;51.412;5.540;2023-07-13T12:12:56;5.53;;;1.42;;
24261;SDS011;12385;51.412;5.540;2023-07-13T12:15:35;6.85;;;1.70;;
24261;SDS011;12385;51.412;5.540;2023-07-13T12:18:02;5.35;;;1.63;;
24261;SDS011;12385;51.412;5.540;2023-07-13T12:20:30;4.97;;;1.50;;
24261;SDS011;12385;51.412;5.540;2023-07-13T12:23:04;4.97;;;1.50;;
24261;SDS011;12385;51.412;5.540;2023-07-13T12:25:31;4.18;;;1.20;;
24261;SDS011;12385;51.412;5.540;2023-07-13T12:27:57;3.10;;;1.20;;
24261;SDS011;12385;51.412;5.540;2023-07-13T12:30:24;3.33;;;1.48;;
24261;SDS011;12385;51.412;5.540;2023-07-13T12:33:00;4.10;;;1.30;;
24261;SDS011;12385;51.412;5.540;2023-07-13T12:35:39;3.92;;;1.30;;
24261;SDS011;12385;51.412;5.540;2023-07-13T12:38:11;3.90;;;1.30;;
24261;SDS011;12385;51.412;5.540;2023-07-13T12:40:37;6.20;;;1.58;;
24261;SDS011;12385;51.412;5.540;2023-07-13T12:43:05;6.78;;;1.55;;
24261;SDS011;12385;51.412;5.540;2023-07-13T12:45:37;6.43;;;1.40;;
24261;SDS011;12385;51.412;5.540;2023-07-13T12:48:04;5.35;;;1.65;;
24261;SDS011;12385;51.412;5.540;2023-07-13T12:50:39;4.47;;;1.60;;
24261;SDS011;12385;51.412;5.540;2023-07-13T12:53:13;5.78;;;2.05;;
24261;SDS011;12385;51.412;5.540;2023-07-13T12:55:46;5.10;;;1.60;;
24261;SDS011;12385;51.412;5.540;2023-07-13T12:58:37;8.43;;;1.63;;
24261;SDS011;12385;51.412;5.540;2023-07-13T13:01:06;4.47;;;1.40;;
24261;SDS011;12385;51.412;5.540;2023-07-13T13:03:46;6.10;;;1.42;;
24261;SDS011;12385;51.412;5.540;2023-07-13T13:08:45;6.60;;;1.55;;
24261;SDS011;12385;51.412;5.540;2023-07-13T13:11:14;5.05;;;1.70;;
24261;SDS011;12385;51.412;5.540;2023-07-13T13:13:41;3.72;;;1.60;;
24261;SDS011;12385;51.412;5.540;2023-07-13T13:18:45;8.93;;;2.20;;
24261;SDS011;12385;51.412;5.540;2023-07-13T13:21:11;6.82;;;2.03;;
24261;SDS011;12385;51.412;5.540;2023-07-13T13:23:37;8.65;;;2.35;;
24261;SDS011;12385;51.412;5.540;2023-07-13T13:26:04;6.55;;;2.22;;
24261;SDS011;12385;51.412;5.540;2023-07-13T13:28:34;7.18;;;2.50;;
24261;SDS011;12385;51.412;5.540;2023-07-13T13:30:59;6.95;;;2.40;;
24261;SDS011;12385;51.412;5.540;2023-07-13T13:33:25;7.78;;;2.75;;
24261;SDS011;12385;51.412;5.540;2023-07-13T13:35:51;7.28;;;2.40;;
24261;SDS011;12385;51.412;5.540;2023-07-13T13:38:18;7.68;;;2.53;;
24261;SDS011;12385;51.412;5.540;2023-07-13T13:40:48;9.82;;;2.50;;
24261;SDS011;12385;51.412;5.540;2023-07-13T13:43:32;6.20;;;2.17;;
24261;SDS011;12385;51.412;5.540;2023-07-13T13:45:58;7.82;;;2.58;;
24261;SDS011;12385;51.412;5.540;2023-07-13T13:48:36;7.18;;;2.72;;
24261;SDS011;12385;51.412;5.540;2023-07-13T13:51:06;7.50;;;2.45;;
24261;SDS011;12385;51.412;5.540;2023-07-13T13:53:41;6.97;;;2.17;;
24261;SDS011;12385;51.412;5.540;2023-07-13T13:56:07;6.55;;;2.40;;
24261;SDS011;12385;51.412;5.540;2023-07-13T13:58:33;4.43;;;1.70;;
24261;SDS011;12385;51.412;5.540;2023-07-13T14:00:59;8.13;;;2.15;;
24261;SDS011;12385;51.412;5.540;2023-07-13T14:03:25;5.28;;;2.00;;
24261;SDS011;12385;51.412;5.540;2023-07-13T14:05:53;6.45;;;1.90;;
24261;SDS011;12385;51.412;5.540;2023-07-13T14:08:19;4.32;;;1.90;;
24261;SDS011;12385;51.412;5.540;2023-07-13T14:10:46;5.43;;;2.05;;
24261;SDS011;12385;51.412;5.540;2023-07-13T14:13:28;5.30;;;2.28;;
24261;SDS011;12385;51.412;5.540;2023-07-13T14:16:12;5.88;;;2.00;;
24261;SDS011;12385;51.412;5.540;2023-07-13T14:18:47;5.43;;;1.73;;
24261;SDS011;12385;51.412;5.540;2023-07-13T14:21:14;5.95;;;1.95;;
24261;SDS011;12385;51.412;5.540;2023-07-13T14:23:43;6.05;;;1.90;;
24261;SDS011;12385;51.412;5.540;2023-07-13T14:26:10;5.80;;;1.92;;
24261;SDS011;12385;51.412;5.540;2023-07-13T14:28:42;4.53;;;1.77;;
24261;SDS011;12385;51.412;5.540;2023-07-13T14:31:14;4.63;;;1.67;;
24261;SDS011;12385;51.412;5.540;2023-07-13T14:33:41;4.85;;;1.60;;
24261;SDS011;12385;51.412;5.540;2023-07-13T14:38:45;6.38;;;1.85;;
24261;SDS011;12385;51.412;5.540;2023-07-13T14:41:11;3.88;;;1.45;;
24261;SDS011;12385;51.412;5.540;2023-07-13T14:43:37;6.65;;;1.98;;
24261;SDS011;12385;51.412;5.540;2023-07-13T14:46:02;2.83;;;1.50;;
24261;SDS011;12385;51.412;5.540;2023-07-13T14:48:29;3.38;;;1.50;;
24261;SDS011;12385;51.412;5.540;2023-07-13T14:50:56;4.35;;;1.30;;
24261;SDS011;12385;51.412;5.540;2023-07-13T14:53:24;6.13;;;1.50;;
24261;SDS011;12385;51.412;5.540;2023-07-13T14:55:52;5.15;;;1.60;;
24261;SDS011;12385;51.412;5.540;2023-07-13T14:58:18;2.40;;;1.25;;
24261;SDS011;12385;51.412;5.540;2023-07-13T15:00:44;4.53;;;1.40;;
24261;SDS011;12385;51.412;5.540;2023-07-13T15:03:21;3.50;;;1.30;;
24261;SDS011;12385;51.412;5.540;2023-07-13T15:05:49;3.65;;;1.33;;
24261;SDS011;12385;51.412;5.540;2023-07-13T15:08:15;3.08;;;1.30;;
24261;SDS011;12385;51.412;5.540;2023-07-13T15:10:41;3.00;;;1.20;;
24261;SDS011;12385;51.412;5.540;2023-07-13T15:13:15;7.82;;;4.20;;
24261;SDS011;12385;51.412;5.540;2023-07-13T15:15:43;5.88;;;1.40;;
24261;SDS011;12385;51.412;5.540;2023-07-13T15:18:14;3.10;;;1.20;;
24261;SDS011;12385;51.412;5.540;2023-07-13T15:20:42;4.05;;;1.30;;
24261;SDS011;12385;51.412;5.540;2023-07-13T15:23:11;3.08;;;1.38;;
24261;SDS011;12385;51.412;5.540;2023-07-13T15:25:37;3.58;;;1.48;;
24261;SDS011;12385;51.412;5.540;2023-07-13T15:28:03;3.65;;;1.25;;
24261;SDS011;12385;51.412;5.540;2023-07-13T15:30:30;3.58;;;1.30;;
24261;SDS011;12385;51.412;5.540;2023-07-13T15:33:09;3.80;;;1.40;;
24261;SDS011;12385;51.412;5.540;2023-07-13T15:35:47;4.00;;;1.10;;
24261;SDS011;12385;51.412;5.540;2023-07-13T15:38:24;4.72;;;1.40;;
24261;SDS011;12385;51.412;5.540;2023-07-13T15:40:53;3.03;;;1.20;;
24261;SDS011;12385;51.412;5.540;2023-07-13T15:43:20;2.38;;;1.20;;
24261;SDS011;12385;51.412;5.540;2023-07-13T15:45:46;4.13;;;1.40;;
24261;SDS011;12385;51.412;5.540;2023-07-13T15:48:13;4.93;;;1.52;;